Time;durP1;ratioP1;P1;durP2;ratioP2;P2;SDS_P1;SDS_P2;PMS_P1;PMS_P2;Temp;Humidity;BMP_temperature;BMP_pressure;BME280_temperature;BME280_humidity;BME280_pressure;Samples;Min_cycle;Max_cycle;Signal;HPM_P1;HPM_P2
2021/10/02 00:02:19;;;;;;;16.27;9.00;;;;;;;14.71;79.09;101265.22;4986932;28;20103;-51
2021/10/02 00:44:58;;;;;;;19.57;10.23;;;;;;;14.35;78.52;101252.84;4996143;28;20437;-49
2021/10/02 00:47:25;;;;;;;27.00;12.15;;;;;;;14.42;78.88;101252.03;5006449;28;20276;-50
2021/10/02 00:49:55;;;;;;;26.00;13.57;;;;;;;14.51;78.78;101257.31;5005615;28;20049;-53
2021/10/02 00:52:21;;;;;;;27.52;13.35;;;;;;;14.56;79.14;101261.72;5001125;28;20867;-51
2021/10/02 00:54:47;;;;;;;28.85;13.35;;;;;;;14.65;79.00;101273.09;5001444;28;20711;-50
2021/10/02 00:57:13;;;;;;;26.30;13.57;;;;;;;14.71;78.83;101262.59;5004352;28;20121;-50
2021/10/02 00:59:39;;;;;;;29.73;14.05;;;;;;;14.78;78.66;101270.50;5003782;28;20064;-49
2021/10/02 01:02:20;;;;;;;26.98;13.50;;;;;;;14.81;78.97;101262.66;5005208;28;20404;-51
2021/10/02 01:05:01;;;;;;;27.75;13.60;;;;;;;14.85;78.82;101253.03;5002724;28;20041;-50
2021/10/02 01:07:38;;;;;;;30.60;13.85;;;;;;;14.85;78.99;101268.78;5001801;28;20053;-52
2021/10/02 01:10:14;;;;;;;26.65;12.75;;;;;;;14.83;78.73;101260.88;5007127;28;20311;-51
2021/10/02 01:12:52;;;;;;;26.05;12.65;;;;;;;14.76;78.80;101258.28;5003446;28;20052;-53
2021/10/02 01:15:26;;;;;;;26.50;12.65;;;;;;;14.67;78.63;101256.50;4993866;28;20053;-54
2021/10/02 01:17:55;;;;;;;25.30;12.80;;;;;;;14.70;77.79;101248.59;5004239;28;20044;-52
2021/10/02 01:20:42;;;;;;;29.38;12.82;;;;;;;14.44;78.27;101248.56;5006280;28;20482;-53
2021/10/02 01:23:22;;;;;;;23.33;12.73;;;;;;;14.39;78.44;101244.16;4996386;28;23150;-54
2021/10/02 01:26:16;;;;;;;26.17;12.80;;;;;;;14.27;78.27;101244.97;5005117;28;20037;-53
2021/10/02 01:28:42;;;;;;;18.13;10.52;;;;;;;14.25;78.18;101246.69;5005785;28;20053;-54
2021/10/02 01:31:56;;;;;;;27.67;13.27;;;;;;;14.26;78.53;101231.84;4979607;28;20448;-52
2021/10/02 01:34:16;;;;;;;26.15;12.73;;;;;;;14.21;78.47;101235.28;4993143;28;20060;-49
2021/10/02 01:37:10;;;;;;;25.00;11.83;;;;;;;14.15;78.60;101234.38;4998817;28;20329;-50
2021/10/02 01:47:53;;;;;;;21.70;10.57;;;;;;;13.85;78.15;101219.38;5005524;28;20477;-50
2021/10/02 01:50:20;;;;;;;24.38;11.90;;;;;;;13.79;78.55;101219.34;4998815;28;20040;-50
2021/10/02 01:52:45;;;;;;;20.40;10.65;;;;;;;13.74;78.53;101216.72;5004533;28;20824;-54
2021/10/02 01:55:12;;;;;;;18.50;10.50;;;;;;;13.73;78.44;101212.34;5014438;28;20144;-52
2021/10/02 01:57:41;;;;;;;17.63;10.23;;;;;;;13.74;78.50;101215.84;4999682;28;20033;-53
2021/10/02 02:00:10;;;;;;;23.02;10.88;;;;;;;13.77;78.48;101214.13;5018416;28;20107;-51
2021/10/02 02:02:37;;;;;;;20.15;10.52;;;;;;;13.74;78.83;101210.59;5000326;28;20464;-50
2021/10/02 02:05:05;;;;;;;17.20;9.60;;;;;;;13.71;78.78;101218.44;4994647;28;20559;-52
2021/10/02 02:07:31;;;;;;;19.83;9.60;;;;;;;13.68;78.56;101214.06;5000445;28;20044;-50
2021/10/02 02:09:57;;;;;;;19.33;9.45;;;;;;;13.48;79.69;101217.44;4999000;28;20679;-50
2021/10/02 02:12:23;;;;;;;16.40;8.15;;;;;;;13.60;78.92;101220.97;5005713;28;20378;-51
2021/10/02 02:14:50;;;;;;;18.48;9.73;;;;;;;13.54;78.81;101222.72;5000671;28;20044;-53
2021/10/02 02:17:20;;;;;;;25.77;10.93;;;;;;;13.50;78.92;101219.19;5013443;28;20252;-49
2021/10/02 02:19:46;;;;;;;18.88;8.13;;;;;;;13.15;79.60;101221.53;4997856;28;20050;-53
2021/10/02 02:22:12;;;;;;;22.02;9.98;;;;;;;13.12;80.05;101207.50;5003179;28;20072;-52
2021/10/02 02:24:37;;;;;;;21.13;9.55;;;;;;;13.13;80.00;101218.00;5004695;28;20523;-50
2021/10/02 02:27:03;;;;;;;18.58;9.10;;;;;;;13.20;79.99;101211.09;4995842;28;20721;-49
2021/10/02 02:29:33;;;;;;;23.83;10.45;;;;;;;13.22;80.03;101204.13;5004192;28;20052;-50
2021/10/02 02:31:59;;;;;;;17.95;8.95;;;;;;;13.22;80.03;101201.50;4998748;28;20450;-49
2021/10/02 02:34:25;;;;;;;28.92;11.55;;;;;;;13.22;79.94;101191.03;4999546;28;20377;-49
2021/10/02 02:36:52;;;;;;;18.15;8.95;;;;;;;13.16;79.93;101189.25;5002900;28;20113;-51
2021/10/02 02:39:17;;;;;;;17.00;8.88;;;;;;;13.16;79.91;101194.50;5012973;28;20065;-53
2021/10/02 02:41:43;;;;;;;19.13;8.55;;;;;;;13.08;79.96;101188.28;5000772;28;20777;-52
2021/10/02 02:44:10;;;;;;;18.77;8.82;;;;;;;13.07;79.81;101180.41;5002939;28;20042;-55
2021/10/02 02:46:38;;;;;;;21.92;10.35;;;;;;;13.06;79.94;101184.75;4997430;28;20347;-52
2021/10/02 02:49:24;;;;;;;20.08;9.50;;;;;;;13.10;79.90;101185.69;4996466;28;20483;-50
2021/10/02 02:52:26;;;;;;;26.33;10.10;;;;;;;13.30;79.77;101173.63;4999486;28;20456;-53
2021/10/02 02:55:05;;;;;;;24.20;11.05;;;;;;;13.15;80.40;101176.16;5004078;28;20330;-53
2021/10/02 02:57:38;;;;;;;26.13;10.90;;;;;;;13.22;80.21;101172.72;5002628;28;20529;-50
2021/10/02 03:00:10;;;;;;;23.33;9.85;;;;;;;13.25;80.60;101183.19;5001885;28;20052;-52
2021/10/02 03:02:42;;;;;;;18.00;9.05;;;;;;;13.75;79.09;101176.53;5000397;28;20451;-48
2021/10/02 03:05:08;;;;;;;23.98;10.32;;;;;;;13.95;78.38;101178.38;4998546;28;20113;-50
2021/10/02 03:07:37;;;;;;;28.80;11.60;;;;;;;13.56;79.97;101185.16;5001293;28;20142;-52
2021/10/02 03:10:03;;;;;;;24.20;10.52;;;;;;;13.45;80.46;101192.06;5017175;28;20038;-48
2021/10/02 03:12:32;;;;;;;21.13;9.60;;;;;;;13.40;80.35;101186.81;4997465;28;20037;-52
2021/10/02 03:14:59;;;;;;;24.15;10.68;;;;;;;13.39;80.53;101178.94;4971823;28;20130;-53
2021/10/02 03:17:26;;;;;;;19.52;9.35;;;;;;;13.34;80.15;101181.53;4981766;28;20120;-52
2021/10/02 03:19:51;;;;;;;23.35;9.48;;;;;;;13.27;80.28;101182.34;5000388;28;20037;-52
2021/10/02 03:22:17;;;;;;;19.42;8.80;;;;;;;13.22;80.26;101184.06;4983569;28;20045;-52
2021/10/02 03:24:43;;;;;;;20.42;9.60;;;;;;;13.12;80.04;101192.69;5000717;28;20087;-48
2021/10/02 03:27:09;;;;;;;18.35;9.25;;;;;;;13.48;78.29;101194.69;4994955;28;20161;-52
2021/10/02 03:29:36;;;;;;;19.98;9.40;;;;;;;13.48;77.72;101189.47;4996748;28;20369;-49
2021/10/02 03:32:04;;;;;;;20.42;9.20;;;;;;;13.37;77.96;101191.13;5001667;28;20460;-48
2021/10/02 03:34:30;;;;;;;19.98;9.93;;;;;;;13.29;78.34;101188.50;4999524;28;20924;-51
2021/10/02 03:36:56;;;;;;;23.73;11.15;;;;;;;13.28;78.51;101189.34;5011195;28;20151;-56
2021/10/02 03:39:21;;;;;;;18.35;10.05;;;;;;;13.28;78.54;101180.63;4998836;28;20408;-47
2021/10/02 03:42:14;;;;;;;18.65;8.73;;;;;;;13.26;78.17;101184.97;4999139;28;20497;-52
2021/10/02 03:44:41;;;;;;;17.67;8.98;;;;;;;13.24;78.47;101186.66;5002665;28;20034;-52
2021/10/02 03:47:08;;;;;;;17.52;8.90;;;;;;;13.22;78.53;101180.56;4993660;28;20045;-47
2021/10/02 03:49:33;;;;;;;16.60;8.40;;;;;;;13.25;78.31;101180.56;5002509;28;20465;-50
2021/10/02 03:51:59;;;;;;;16.13;8.15;;;;;;;13.22;78.36;101185.81;4998488;28;20040;-51
2021/10/02 03:54:24;;;;;;;17.58;8.75;;;;;;;13.17;79.02;101180.53;5004718;28;20332;-48
2021/10/02 03:56:49;;;;;;;21.17;8.20;;;;;;;13.18;78.71;101181.38;5001573;28;20120;-48
2021/10/02 03:59:15;;;;;;;22.77;9.82;;;;;;;13.19;78.83;101180.53;4998019;28;22696;-49
2021/10/02 04:01:40;;;;;;;20.50;8.55;;;;;;;13.05;78.74;101176.91;5003405;28;20378;-52
2021/10/02 04:04:06;;;;;;;19.60;8.27;;;;;;;12.85;79.77;101179.34;5001841;28;20320;-49
2021/10/02 04:06:31;;;;;;;14.68;7.28;;;;;;;13.01;79.20;101174.25;5001614;28;20045;-50
2021/10/02 04:08:57;;;;;;;15.70;7.32;;;;;;;13.09;78.62;101181.31;4999694;28;20034;-49
2021/10/02 04:11:22;;;;;;;15.85;7.43;;;;;;;13.08;78.74;101171.69;5003937;28;20042;-49
2021/10/02 04:13:48;;;;;;;17.85;8.27;;;;;;;13.02;78.86;101180.38;5009218;28;20446;-52
2021/10/02 04:16:13;;;;;;;20.35;8.68;;;;;;;12.87;79.83;101183.72;5002835;28;20041;-48
2021/10/02 04:18:39;;;;;;;21.98;9.75;;;;;;;13.06;79.36;101174.28;5005886;28;20045;-52
2021/10/02 04:21:04;;;;;;;17.35;8.10;;;;;;;13.10;79.41;101173.47;4998547;28;20415;-49
2021/10/02 04:23:30;;;;;;;19.83;8.32;;;;;;;13.09;79.29;101169.09;5005548;28;20068;-51
2021/10/02 04:25:56;;;;;;;23.05;8.95;;;;;;;13.10;79.28;101165.63;5002965;28;20960;-49
2021/10/02 04:28:22;;;;;;;15.35;7.43;;;;;;;13.10;79.18;101156.88;5003692;28;20433;-51
2021/10/02 04:30:47;;;;;;;14.85;7.25;;;;;;;13.04;78.70;101149.88;5002222;28;20041;-50
2021/10/02 04:33:13;;;;;;;17.40;6.93;;;;;;;12.96;78.85;101162.88;4992833;28;20048;-52
2021/10/02 04:35:38;;;;;;;13.80;6.82;;;;;;;13.04;78.68;101155.09;5001828;28;20099;-52
2021/10/02 04:38:04;;;;;;;16.45;7.72;;;;;;;13.02;78.78;101167.28;5005908;28;20428;-53
2021/10/02 04:40:29;;;;;;;12.07;6.53;;;;;;;13.09;78.63;101165.59;5004545;28;20049;-51
2021/10/02 04:42:55;;;;;;;20.20;8.32;;;;;;;12.90;79.43;101156.72;5000050;28;20073;-50
2021/10/02 04:45:20;;;;;;;18.77;8.35;;;;;;;12.87;79.98;101148.81;5003032;28;20187;-53
2021/10/02 04:47:46;;;;;;;27.27;10.82;;;;;;;13.14;79.62;101143.84;5003259;28;20898;-49
2021/10/02 04:50:11;;;;;;;20.15;9.07;;;;;;;13.22;79.41;101144.78;5004013;28;20042;-53
2021/10/02 04:52:38;;;;;;;18.00;8.50;;;;;;;13.17;79.30;101161.34;5004123;28;20386;-50
2021/10/02 04:55:04;;;;;;;17.02;8.23;;;;;;;13.27;78.87;101161.41;4997140;28;20094;-51
2021/10/02 04:57:30;;;;;;;25.80;9.88;;;;;;;13.24;79.39;101152.63;5017091;28;20604;-49
2021/10/02 04:59:55;;;;;;;22.17;9.00;;;;;;;13.28;79.12;101157.06;4989515;28;20606;-54
2021/10/02 05:02:20;;;;;;;22.02;9.63;;;;;;;13.25;78.97;101154.41;5003257;28;20356;-50
2021/10/02 05:04:46;;;;;;;19.27;8.57;;;;;;;13.28;79.05;101157.06;5003265;28;20087;-53
2021/10/02 05:07:11;;;;;;;23.98;9.63;;;;;;;13.26;78.90;101158.78;4996899;28;20272;-49
2021/10/02 05:09:37;;;;;;;22.25;9.25;;;;;;;13.31;78.57;101152.69;5005768;28;20076;-53
2021/10/02 05:12:02;;;;;;;23.00;10.88;;;;;;;13.27;79.18;101165.75;5004757;28;20133;-51
2021/10/02 05:14:28;;;;;;;32.95;11.80;;;;;;;13.06;79.85;101169.06;5003896;28;20532;-52
2021/10/02 05:16:53;;;;;;;28.95;12.35;;;;;;;13.03;80.18;101153.34;5000238;28;20258;-51
2021/10/02 05:19:19;;;;;;;27.70;12.48;;;;;;;12.94;80.75;101161.09;5001016;28;20106;-54
2021/10/02 05:21:44;;;;;;;23.63;10.95;;;;;;;13.13;79.80;101162.16;5000950;28;20038;-50
2021/10/02 05:24:10;;;;;;;40.58;14.35;;;;;;;13.17;79.67;101154.38;5003407;28;20087;-52
2021/10/02 05:26:35;;;;;;;29.90;12.02;;;;;;;13.20;79.36;101158.72;5003520;28;20080;-52
2021/10/02 05:29:01;;;;;;;28.17;12.45;;;;;;;13.20;79.56;101162.22;4998958;28;20041;-54
2021/10/02 05:31:26;;;;;;;35.15;14.57;;;;;;;13.21;79.45;101168.34;5005296;28;20099;-54
2021/10/02 05:33:52;;;;;;;36.80;13.25;;;;;;;13.22;79.38;101159.63;5004874;28;20042;-51
2021/10/02 05:36:17;;;;;;;28.55;12.50;;;;;;;13.25;79.47;101157.88;5002168;28;20448;-50
2021/10/02 05:38:42;;;;;;;36.72;14.18;;;;;;;13.23;79.58;101154.41;5005910;28;20051;-52
2021/10/02 05:41:08;;;;;;;38.47;14.30;;;;;;;13.24;79.36;101147.41;4994968;28;20109;-50
2021/10/02 05:43:33;;;;;;;34.60;13.65;;;;;;;13.23;79.40;101140.44;5003865;28;20046;-52
2021/10/02 05:45:58;;;;;;;33.55;12.82;;;;;;;13.21;79.27;101157.88;5001113;28;20041;-50
2021/10/02 05:48:24;;;;;;;33.33;13.23;;;;;;;13.18;79.30;101148.25;5003361;28;20045;-53
2021/10/02 05:50:49;;;;;;;27.38;12.00;;;;;;;13.29;79.15;101146.59;4997568;28;21053;-50
2021/10/02 05:53:14;;;;;;;38.72;14.07;;;;;;;13.29;79.56;101154.44;4995038;28;20454;-51
2021/10/02 05:55:40;;;;;;;40.90;14.77;;;;;;;13.43;79.85;101153.63;5004046;28;20029;-52
2021/10/02 05:58:05;;;;;;;41.47;14.10;;;;;;;13.61;79.57;101153.75;5000429;28;20110;-51
2021/10/02 06:00:31;;;;;;;30.08;12.68;;;;;;;13.72;79.24;101163.41;5003047;28;20064;-50
2021/10/02 06:02:56;;;;;;;35.25;13.35;;;;;;;13.46;80.29;101156.28;5002804;28;20148;-58
2021/10/02 06:05:26;;;;;;;31.13;12.30;;;;;;;13.42;80.77;101144.91;5000505;28;20099;-50
2021/10/02 06:07:52;;;;;;;34.22;12.65;;;;;;;13.42;80.86;101157.16;4998016;28;20587;-47
2021/10/02 06:10:17;;;;;;;31.58;12.27;;;;;;;13.42;80.81;101159.78;5001657;28;20042;-49
2021/10/02 06:12:42;;;;;;;32.40;12.75;;;;;;;13.43;80.85;101153.63;5004766;28;20588;-51
2021/10/02 06:15:08;;;;;;;33.97;12.65;;;;;;;13.40;80.93;101159.75;4995608;28;20537;-53
2021/10/02 06:17:33;;;;;;;28.27;11.23;;;;;;;13.43;80.80;101151.03;4999583;28;20129;-51
2021/10/02 06:19:59;;;;;;;29.55;11.45;;;;;;;13.33;80.72;101153.59;5004633;28;20056;-49
2021/10/02 06:22:24;;;;;;;30.08;12.02;;;;;;;13.31;80.76;101151.81;5000590;28;20045;-49
2021/10/02 06:24:50;;;;;;;31.33;12.18;;;;;;;13.38;80.61;101156.22;5004111;28;20462;-50
2021/10/02 06:27:16;;;;;;;30.50;11.90;;;;;;;13.38;80.47;101151.00;4995783;28;20286;-52
2021/10/02 06:29:42;;;;;;;24.65;10.27;;;;;;;13.34;80.60;101149.25;5003468;28;21333;-53
2021/10/02 06:32:07;;;;;;;25.13;10.98;;;;;;;13.44;80.44;101144.91;5002814;28;20539;-50
2021/10/02 06:34:32;;;;;;;28.42;11.27;;;;;;;13.46;80.58;101148.44;5004383;28;20099;-48
2021/10/02 06:36:58;;;;;;;23.40;10.82;;;;;;;13.51;80.35;101150.22;4995270;28;20103;-47
2021/10/02 06:39:23;;;;;;;21.60;10.38;;;;;;;13.89;78.91;101142.53;4997065;28;20053;-50
2021/10/02 06:41:49;;;;;;;21.48;10.18;;;;;;;14.05;78.55;101144.34;5000215;28;20041;-47
2021/10/02 06:44:14;;;;;;;19.23;9.85;;;;;;;14.29;78.26;101148.78;5003514;28;20103;-49
2021/10/02 06:46:40;;;;;;;16.38;9.30;;;;;;;14.42;77.46;101141.84;4999946;28;20775;-52
2021/10/02 06:49:05;;;;;;;16.25;8.88;;;;;;;14.60;76.57;101127.03;4997723;28;20087;-51
2021/10/02 06:51:30;;;;;;;17.52;8.30;;;;;;;14.72;75.86;101131.41;5000817;28;20325;-52
2021/10/02 06:53:56;;;;;;;17.70;8.00;;;;;;;14.80;75.46;101127.03;5002723;28;20132;-53
2021/10/02 06:56:21;;;;;;;15.63;8.68;;;;;;;14.93;74.91;101120.03;5001306;28;20079;-51
2021/10/02 06:58:47;;;;;;;18.05;8.48;;;;;;;14.64;75.96;101120.00;5004990;28;20045;-51
2021/10/02 07:01:12;;;;;;;16.08;8.73;;;;;;;14.59;75.57;101120.00;4994820;28;20712;-49
2021/10/02 07:03:38;;;;;;;15.85;8.25;;;;;;;14.87;74.45;101123.53;5001596;28;20048;-50
2021/10/02 07:06:03;;;;;;;17.73;8.77;;;;;;;14.64;75.22;101122.63;4998799;28;20069;-52
2021/10/02 07:08:28;;;;;;;16.42;8.90;;;;;;;14.56;75.11;101121.78;4998393;28;20136;-52
2021/10/02 07:10:54;;;;;;;22.60;9.82;;;;;;;14.44;75.41;101122.63;4999286;28;20057;-53
2021/10/02 07:13:19;;;;;;;18.77;9.45;;;;;;;14.46;75.57;101126.13;4995043;28;20683;-49
2021/10/02 07:15:45;;;;;;;16.40;8.77;;;;;;;14.46;75.54;101118.25;5004813;28;20095;-50
2021/10/02 07:18:10;;;;;;;18.65;9.15;;;;;;;14.40;76.03;101107.75;4998124;28;20135;-52
2021/10/02 07:20:35;;;;;;;17.30;8.90;;;;;;;14.44;75.82;101113.88;5004653;28;20053;-51
2021/10/02 07:23:01;;;;;;;15.55;8.43;;;;;;;14.53;75.59;101113.88;4994304;28;20042;-54
2021/10/02 07:25:26;;;;;;;21.85;9.07;;;;;;;14.54;74.93;101106.03;5001367;28;20048;-48
2021/10/02 07:27:52;;;;;;;14.25;8.45;;;;;;;14.57;74.75;101100.78;5000673;28;20069;-53
2021/10/02 07:30:18;;;;;;;16.30;9.10;;;;;;;14.57;74.75;101100.78;5000033;28;20065;-47
2021/10/02 07:32:44;;;;;;;24.20;8.40;;;;;;;14.64;75.01;101096.41;5001945;28;20124;-55
2021/10/02 07:35:11;;;;;;;17.13;8.65;;;;;;;14.71;73.77;101098.16;4992574;28;20083;-49
2021/10/02 07:37:46;;;;;;;19.60;8.05;;;;;;;14.68;73.80;101100.78;4996676;28;20037;-52
2021/10/02 07:40:12;;;;;;;18.45;8.32;;;;;;;14.94;73.15;101085.03;4983043;28;20052;-49
2021/10/02 07:42:38;;;;;;;16.42;7.82;;;;;;;15.09;72.32;101094.63;5001278;28;20692;-49
2021/10/02 07:45:10;;;;;;;14.05;7.70;;;;;;;15.18;72.17;101092.00;4992404;28;20053;-48
2021/10/02 07:47:43;;;;;;;16.42;7.70;;;;;;;14.85;72.76;101106.03;5012743;28;20084;-51
2021/10/02 07:50:11;;;;;;;15.25;7.50;;;;;;;14.84;73.03;101106.91;5001459;28;20054;-50
2021/10/02 07:52:37;;;;;;;17.17;7.45;;;;;;;14.90;72.13;101113.03;5002854;28;20046;-49
2021/10/02 07:55:04;;;;;;;19.13;7.88;;;;;;;14.85;72.85;101127.03;4994482;28;20069;-49
2021/10/02 07:57:31;;;;;;;17.50;8.00;;;;;;;14.79;72.90;101119.16;5000593;28;20381;-50
2021/10/02 07:59:56;;;;;;;16.90;7.68;;;;;;;14.93;72.37;101105.16;4996487;28;20065;-51
2021/10/02 08:02:23;;;;;;;18.00;8.23;;;;;;;14.93;73.44;101105.16;4994748;28;20464;-51
2021/10/02 08:04:48;;;;;;;15.32;7.80;;;;;;;15.03;73.32;101104.25;4999961;28;20277;-53
2021/10/02 08:07:14;;;;;;;18.75;7.68;;;;;;;15.14;71.91;101099.00;4987294;28;20108;-48
2021/10/02 08:09:41;;;;;;;18.67;7.80;;;;;;;15.13;72.94;101096.34;5002225;28;20125;-51
2021/10/02 08:12:07;;;;;;;17.10;7.32;;;;;;;15.32;72.15;101090.19;4998098;28;20060;-51
2021/10/02 08:14:32;;;;;;;16.98;7.03;;;;;;;15.32;71.07;101084.94;4999226;28;20448;-50
2021/10/02 08:16:58;;;;;;;15.35;7.22;;;;;;;15.62;71.68;101079.63;4994363;28;20033;-49
2021/10/02 08:19:24;;;;;;;14.18;6.60;;;;;;;15.89;69.43;101077.75;5000081;28;20042;-49
2021/10/02 08:21:52;;;;;;;13.63;6.78;;;;;;;16.00;68.83;101076.81;5003876;28;20041;-51
2021/10/02 08:24:17;;;;;;;15.75;6.90;;;;;;;16.04;69.09;101081.16;4998939;28;20041;-52
2021/10/02 08:26:43;;;;;;;10.10;5.88;;;;;;;16.12;68.77;101078.50;4996181;28;20452;-49
2021/10/02 08:29:08;;;;;;;12.68;6.15;;;;;;;16.12;69.28;101074.13;4995598;28;20044;-50
2021/10/02 08:31:34;;;;;;;17.55;6.65;;;;;;;16.13;69.30;101065.34;5001948;28;20132;-48
2021/10/02 08:34:00;;;;;;;12.32;5.95;;;;;;;16.19;68.77;101065.31;4998296;28;20041;-49
2021/10/02 08:36:25;;;;;;;11.35;4.90;;;;;;;16.40;67.37;101061.66;5000551;28;20744;-52
2021/10/02 08:38:51;;;;;;;15.77;5.00;;;;;;;16.56;67.12;101059.78;5005324;28;20038;-53
2021/10/02 08:41:18;;;;;;;15.70;5.10;;;;;;;16.90;64.79;101068.25;4992358;28;22467;-50
2021/10/02 08:43:47;;;;;;;11.32;4.90;;;;;;;17.15;62.72;101064.50;5006818;28;20048;-52
2021/10/02 08:46:12;;;;;;;12.40;5.50;;;;;;;17.36;64.70;101056.38;4999487;28;20551;-53
2021/10/02 08:48:39;;;;;;;10.10;5.22;;;;;;;17.63;64.13;101054.31;5002094;28;20116;-51
2021/10/02 08:51:05;;;;;;;13.32;5.72;;;;;;;17.27;65.45;101039.78;4991762;28;20429;-51
2021/10/02 08:53:31;;;;;;;11.38;5.03;;;;;;;17.45;63.28;101037.81;5004604;28;20030;-51
2021/10/02 08:55:59;;;;;;;11.60;5.03;;;;;;;17.30;63.47;101024.81;5020520;28;20065;-49
2021/10/02 08:58:25;;;;;;;11.43;5.45;;;;;;;17.07;64.13;101028.63;5003654;28;20539;-49
2021/10/02 09:00:52;;;;;;;10.68;4.65;;;;;;;17.22;62.49;101018.75;5001231;28;20052;-51
2021/10/02 09:03:19;;;;;;;16.45;5.30;;;;;;;17.13;65.13;101020.66;5001457;28;23552;-47
2021/10/02 09:05:46;;;;;;;10.98;4.93;;;;;;;17.45;61.47;101026.38;5003655;28;20063;-49
2021/10/02 09:08:12;;;;;;;9.85;4.47;;;;;;;17.31;61.66;101013.41;5000265;28;20048;-50
2021/10/02 09:10:37;;;;;;;9.73;4.18;;;;;;;17.31;62.03;101004.63;5004206;28;20064;-52
2021/10/02 09:13:03;;;;;;;10.60;4.20;;;;;;;17.30;61.09;101008.13;4998341;28;20045;-50
2021/10/02 09:15:29;;;;;;;12.90;4.32;;;;;;;17.09;62.81;101018.91;5001543;28;20063;-49
2021/10/02 09:17:55;;;;;;;9.20;3.78;;;;;;;17.14;60.07;101004.78;4983195;28;20556;-49
2021/10/02 09:20:22;;;;;;;10.93;4.25;;;;;;;17.21;61.15;101011.75;5004210;28;20038;-51
2021/10/02 09:22:54;;;;;;;13.63;4.40;;;;;;;17.09;64.90;101003.09;5000459;28;20072;-53
2021/10/02 09:25:19;;;;;;;9.90;3.63;;;;;;;17.20;61.11;101004.72;5002825;28;21745;-51
2021/10/02 09:27:45;;;;;;;8.70;3.70;;;;;;;17.26;59.18;101001.19;5003389;28;20041;-49
2021/10/02 09:30:13;;;;;;;10.93;4.10;;;;;;;17.23;59.09;101001.19;5005321;28;20051;-48
2021/10/02 09:32:41;;;;;;;11.45;4.63;;;;;;;17.35;59.33;101001.91;5003182;28;20486;-54
2021/10/02 09:35:21;;;;;;;13.55;5.25;;;;;;;17.34;59.77;100999.28;4996510;28;20053;-48
2021/10/02 09:37:52;;;;;;;11.90;5.22;;;;;;;17.53;60.95;100992.91;5018557;28;20053;-54
2021/10/02 09:40:22;;;;;;;12.48;5.95;;;;;;;17.43;62.21;100978.13;5005434;28;20045;-50
2021/10/02 09:42:55;;;;;;;12.35;5.45;;;;;;;17.57;60.62;100984.06;5001512;28;20040;-49
2021/10/02 09:45:41;;;;;;;15.00;5.80;;;;;;;17.83;59.48;100970.53;5002549;28;20045;-53
2021/10/02 09:48:10;;;;;;;15.60;7.32;;;;;;;17.75;60.30;100975.03;5008414;28;20518;-50
2021/10/02 09:50:39;;;;;;;16.42;8.32;;;;;;;17.43;63.28;100978.13;5005332;28;20037;-51
2021/10/02 09:53:09;;;;;;;15.23;8.43;;;;;;;17.52;60.23;100974.47;4995861;28;20088;-52
2021/10/02 09:55:37;;;;;;;14.57;8.98;;;;;;;17.61;59.58;100975.25;5006113;28;20084;-51
2021/10/02 09:58:05;;;;;;;16.67;9.13;;;;;;;17.58;62.52;100969.09;5003652;28;20040;-50
2021/10/02 10:00:47;;;;;;;14.82;9.00;;;;;;;17.44;63.37;100970.16;5002191;28;20034;-52
2021/10/02 10:03:14;;;;;;;17.30;9.95;;;;;;;17.69;61.70;100964.59;5012312;28;20042;-50
2021/10/02 10:05:44;;;;;;;17.05;10.45;;;;;;;17.57;64.58;100965.59;4991654;28;20119;-51
2021/10/02 10:08:12;;;;;;;17.63;10.85;;;;;;;17.53;62.56;100956.00;5004124;28;20656;-50
2021/10/02 10:10:42;;;;;;;18.48;11.30;;;;;;;17.44;63.79;100961.41;5008003;28;20126;-51
2021/10/02 10:13:22;;;;;;;17.75;11.60;;;;;;;17.43;63.86;100942.09;4990981;28;20064;-49
2021/10/02 10:15:53;;;;;;;18.55;11.77;;;;;;;17.56;63.00;100937.53;5004834;28;20099;-50
2021/10/02 10:18:26;;;;;;;21.67;12.35;;;;;;;17.40;64.47;100936.84;5001624;28;20099;-52
2021/10/02 10:20:54;;;;;;;18.15;11.82;;;;;;;17.53;65.39;100931.41;5003169;28;20103;-48
2021/10/02 10:23:31;;;;;;;19.30;12.35;;;;;;;17.57;64.13;100922.53;4988969;28;20138;-50
2021/10/02 10:26:02;;;;;;;18.95;13.20;;;;;;;17.64;65.63;100914.56;4994684;28;20095;-52
2021/10/02 10:28:30;;;;;;;22.67;12.88;;;;;;;17.77;64.98;100913.50;5004375;28;20409;-51
2021/10/02 10:31:09;;;;;;;21.58;13.70;;;;;;;17.81;63.23;100903.75;4991886;28;20083;-50
2021/10/02 10:33:35;;;;;;;23.42;14.13;;;;;;;17.84;61.84;100899.31;5005276;28;20072;-50
2021/10/02 10:36:00;;;;;;;23.67;14.23;;;;;;;17.83;64.27;100905.47;4991547;28;20041;-55
2021/10/02 10:38:26;;;;;;;25.95;15.18;;;;;;;17.83;63.24;100901.97;5001326;28;20133;-48
2021/10/02 10:40:53;;;;;;;24.15;14.32;;;;;;;17.79;64.17;100906.44;4996663;28;20036;-51
2021/10/02 10:43:20;;;;;;;22.38;14.30;;;;;;;17.90;62.85;100900.97;5003290;28;20073;-48
2021/10/02 10:45:46;;;;;;;25.25;14.32;;;;;;;17.74;64.38;100895.09;5004566;28;20442;-48
2021/10/02 10:48:12;;;;;;;23.95;13.98;;;;;;;17.80;63.23;100887.09;5002373;28;20041;-51
2021/10/02 10:50:40;;;;;;;22.52;14.63;;;;;;;17.84;65.15;100880.84;5001528;28;20046;-51
2021/10/02 10:53:06;;;;;;;18.42;13.63;;;;;;;17.80;64.32;100871.25;4992717;28;20033;-50
2021/10/02 10:55:33;;;;;;;22.23;12.40;;;;;;;17.99;63.09;100870.97;4999445;28;20831;-52
2021/10/02 10:58:00;;;;;;;21.58;13.80;;;;;;;18.09;63.62;100861.97;5002135;28;20068;-50
2021/10/02 11:00:41;;;;;;;22.10;12.80;;;;;;;18.22;61.77;100851.19;5003702;28;20040;-50
2021/10/02 11:03:10;;;;;;;21.27;11.90;;;;;;;18.22;62.41;100847.69;4997527;28;20399;-51
2021/10/02 11:05:35;;;;;;;19.98;12.40;;;;;;;18.23;62.19;100845.00;4997189;28;20060;-52
2021/10/02 11:08:04;;;;;;;20.27;12.13;;;;;;;18.22;61.25;100848.53;5004329;28;20045;-52
2021/10/02 11:10:45;;;;;;;23.08;12.50;;;;;;;18.23;63.31;100855.56;5001041;28;20524;-54
2021/10/02 11:13:11;;;;;;;19.63;12.02;;;;;;;18.30;61.81;100844.91;4997286;28;20254;-51
2021/10/02 11:15:37;;;;;;;17.00;12.52;;;;;;;18.22;63.91;100848.53;5000987;28;20045;-50
2021/10/02 11:18:02;;;;;;;17.70;11.82;;;;;;;18.40;62.30;100839.41;5004687;28;20037;-52
2021/10/02 11:20:29;;;;;;;19.92;11.38;;;;;;;18.43;63.13;100838.47;4998755;28;20052;-50
2021/10/02 11:23:36;;;;;;;17.83;11.52;;;;;;;18.51;61.54;100832.16;4999140;28;20056;-50
2021/10/02 11:26:14;;;;;;;19.92;11.68;;;;;;;18.82;61.46;100821.00;5007386;28;20317;-51
2021/10/02 11:28:45;;;;;;;17.65;10.88;;;;;;;19.00;60.61;100813.53;5001289;28;20053;-49
2021/10/02 11:31:19;;;;;;;17.88;10.98;;;;;;;18.97;61.76;100802.16;4995864;28;20194;-49
2021/10/02 11:33:47;;;;;;;18.13;10.00;;;;;;;18.75;61.38;100808.81;5000650;28;20042;-53
2021/10/02 11:36:28;;;;;;;16.45;9.48;;;;;;;18.73;60.58;100808.84;5004903;28;20148;-47
2021/10/02 11:39:09;;;;;;;17.15;8.88;;;;;;;18.71;61.78;100794.81;4997928;28;20108;-50
2021/10/02 11:41:38;;;;;;;15.07;9.27;;;;;;;18.77;61.51;100794.69;5003224;28;20042;-54
2021/10/02 11:44:04;;;;;;;18.50;9.18;;;;;;;19.05;61.58;100779.94;5013749;28;20045;-51
2021/10/02 11:46:29;;;;;;;15.43;9.20;;;;;;;19.19;60.94;100773.47;5002418;28;20049;-52
2021/10/02 11:49:12;;;;;;;16.13;8.27;;;;;;;19.44;60.64;100756.13;5001176;28;20584;-55
2021/10/02 11:51:37;;;;;;;14.85;7.97;;;;;;;19.47;60.90;100749.91;4999666;28;20366;-51
2021/10/02 11:54:09;;;;;;;12.45;7.05;;;;;;;19.76;58.80;100737.66;5001975;28;20490;-52
2021/10/02 11:56:35;;;;;;;13.27;6.70;;;;;;;19.97;57.71;100733.59;4990627;28;20889;-51
2021/10/02 11:59:02;;;;;;;12.93;6.43;;;;;;;20.05;57.24;100718.38;4988219;28;20132;-53
2021/10/02 12:01:32;;;;;;;12.82;6.78;;;;;;;19.89;57.79;100727.63;5001507;28;20045;-51
2021/10/02 12:04:09;;;;;;;11.73;7.22;;;;;;;20.06;55.97;100724.53;4998608;28;20046;-51
2021/10/02 12:06:40;;;;;;;14.88;7.28;;;;;;;20.00;57.63;100720.28;4999243;28;20119;-49
2021/10/02 12:09:10;;;;;;;13.52;7.28;;;;;;;19.89;56.66;100709.13;4992148;28;20069;-50